Time;durP1;ratioP1;P1;durP2;ratioP2;P2;SDS_P1;SDS_P2;PMS_P1;PMS_P2;Temp;Humidity;BMP_temperature;BMP_pressure;BME280_temperature;BME280_humidity;BME280_pressure;Samples;Min_cycle;Max_cycle;Signal;HPM_P1;HPM_P2
2021/11/17 02:26:54;;;;;;;127.70;65.00;;;;;;;-2.32;84.33;101204.27;1449360;90;21434;-89
2021/11/17 02:29:42;;;;;;;142.35;70.25;;;;;;;-2.31;84.85;101199.47;1447996;90;22513;-89
2021/11/17 02:32:24;;;;;;;122.35;68.70;;;;;;;-2.29;84.87;101198.14;1446720;89;22457;-89
2021/11/17 02:35:35;;;;;;;130.78;73.83;;;;;;;-2.32;85.61;101195.19;1452553;90;21405;-89
2021/11/17 02:38:36;;;;;;;129.68;75.52;;;;;;;-2.30;85.41;101189.52;1454143;89;22568;-89
2021/11/17 02:41:30;;;;;;;122.15;65.50;;;;;;;-2.32;85.32;101194.34;1361407;96;21410;-89
2021/11/17 02:44:24;;;;;;;126.55;67.12;;;;;;;-2.34;85.24;101194.38;1437920;90;21664;-88
2021/11/17 02:47:00;;;;;;;130.00;71.57;;;;;;;-2.34;85.05;101196.13;1453477;90;22467;-88
2021/11/17 02:49:47;;;;;;;135.28;75.90;;;;;;;-2.35;84.78;101195.28;1445482;89;23391;-88
2021/11/17 02:52:42;;;;;;;136.30;72.90;;;;;;;-2.36;84.46;101191.42;1445212;90;21397;-88
2021/11/17 02:55:30;;;;;;;142.18;77.95;;;;;;;-2.38;84.30;101196.67;1447197;89;21501;-89
2021/11/17 02:58:21;;;;;;;143.93;75.75;;;;;;;-2.41;84.19;101192.88;1445446;90;22365;-89
2021/11/17 03:01:17;;;;;;;140.35;74.82;;;;;;;-2.45;84.26;101189.96;1450164;90;21427;-90
2021/11/17 03:04:15;;;;;;;155.40;81.12;;;;;;;-2.53;83.67;101184.19;1447375;90;21479;-90
2021/11/17 03:07:03;;;;;;;153.65;77.08;;;;;;;-2.65;83.62;101189.70;1458855;90;22919;-89
2021/11/17 03:10:14;;;;;;;137.20;73.52;;;;;;;-2.74;83.73;101190.38;1449428;89;22336;-90
2021/11/17 03:13:11;;;;;;;128.20;71.22;;;;;;;-2.77;84.23;101185.28;1454086;89;21367;-90
2021/11/17 03:16:02;;;;;;;132.50;74.53;;;;;;;-2.81;84.71;101183.69;1452417;90;21577;-90
2021/11/17 03:18:52;;;;;;;131.32;73.50;;;;;;;-2.80;84.50;101190.55;1445421;90;21434;-90
2021/11/17 03:21:27;;;;;;;130.78;73.87;;;;;;;-2.79;84.91;101190.98;1451329;90;22388;-90
2021/11/17 03:24:02;;;;;;;139.47;74.65;;;;;;;-2.77;85.27;101189.63;1444912;89;22469;-89
2021/11/17 03:27:02;;;;;;;128.47;71.20;;;;;;;-2.73;85.63;101190.80;1449719;90;21375;-91
2021/11/17 03:29:56;;;;;;;133.70;74.35;;;;;;;-2.67;85.65;101195.41;1448680;89;21345;-90
2021/11/17 03:33:01;;;;;;;120.72;67.95;;;;;;;-2.60;85.45;101192.56;1454576;90;21508;-90
2021/11/17 03:35:48;;;;;;;127.85;70.60;;;;;;;-2.56;85.35;101189.02;1452192;89;21316;-89
2021/11/17 03:38:33;;;;;;;117.87;65.60;;;;;;;-2.49;85.02;101193.55;1445001;89;21376;-89
2021/11/17 03:41:41;;;;;;;113.03;63.25;;;;;;;-2.43;85.06;101190.77;1443740;89;22580;-88
2021/11/17 03:44:35;;;;;;;103.12;57.95;;;;;;;-2.35;84.94;101191.84;1448277;89;21538;-89
2021/11/17 03:47:31;;;;;;;102.78;57.78;;;;;;;-2.36;84.73;101194.90;1444563;90;22418;-88
2021/11/17 03:50:29;;;;;;;96.02;56.92;;;;;;;-2.40;84.36;101193.27;1451123;90;21456;-88
2021/11/17 03:53:18;;;;;;;91.37;56.83;;;;;;;-2.47;84.23;101185.30;1448962;90;21471;-89
2021/11/17 03:56:16;;;;;;;103.83;58.35;;;;;;;-2.50;84.12;101187.98;1451463;90;21382;-89
2021/11/17 03:59:00;;;;;;;113.20;62.73;;;;;;;-2.43;84.30;101185.59;1451994;90;21472;-89
2021/11/17 04:02:05;;;;;;;104.38;61.65;;;;;;;-2.34;84.12;101189.19;1448817;90;21368;-89
2021/11/17 04:05:14;;;;;;;105.07;60.90;;;;;;;-2.29;83.93;101187.31;1451807;90;21611;-88
2021/11/17 04:08:29;;;;;;;97.53;57.43;;;;;;;-2.30;83.81;101184.34;1448045;90;21496;-89
2021/11/17 04:11:17;;;;;;;105.80;63.68;;;;;;;-2.30;83.72;101186.92;1446030;89;21441;-89
2021/11/17 04:14:14;;;;;;;92.10;55.48;;;;;;;-2.25;83.68;101187.22;1451921;90;23300;-89
2021/11/17 04:16:49;;;;;;;100.78;60.20;;;;;;;-2.29;83.48;101185.17;1446082;89;22234;-89
2021/11/17 04:19:39;;;;;;;93.60;56.75;;;;;;;-2.25;83.28;101182.03;1449685;89;22328;-89
2021/11/17 04:22:23;;;;;;;92.65;54.08;;;;;;;-2.20;83.46;101184.04;1444744;89;21390;-89
2021/11/17 04:25:08;;;;;;;95.97;57.58;;;;;;;-2.13;83.79;101185.11;1448329;90;21471;-90
2021/11/17 04:28:12;;;;;;;106.60;60.15;;;;;;;-2.08;83.42;101183.65;1446679;89;21568;-89
2021/11/17 04:30:54;;;;;;;111.17;63.58;;;;;;;-2.01;83.05;101188.19;1453598;89;21464;-90
2021/11/17 04:33:33;;;;;;;;;;;;;;;-1.98;82.74;101191.55;1451712;90;22814;-90
2021/11/17 04:36:26;;;;;;;96.08;54.70;;;;;;;-1.93;82.44;101183.60;1455277;90;20866;-89
2021/11/17 04:39:08;;;;;;;87.72;55.30;;;;;;;-1.94;81.70;101178.87;1450010;90;21389;-90
2021/11/17 04:41:41;;;;;;;87.30;52.27;;;;;;;-1.92;81.32;101178.38;1448961;89;21604;-88
2021/11/17 04:44:20;;;;;;;80.15;50.15;;;;;;;-1.93;81.05;101179.71;1456416;90;22328;-88
2021/11/17 04:47:28;;;;;;;78.78;46.60;;;;;;;-1.94;80.85;101182.76;1450082;90;22381;-89
2021/11/17 04:50:12;;;;;;;72.62;46.23;;;;;;;-1.97;80.92;101178.97;1443614;90;22366;-88
2021/11/17 04:53:13;;;;;;;80.75;50.98;;;;;;;-1.95;81.05;101173.30;1447786;90;21376;-89
2021/11/17 04:55:49;;;;;;;75.10;46.70;;;;;;;-1.89;81.40;101183.47;1440757;90;21508;-88
2021/11/17 04:58:44;;;;;;;73.67;46.80;;;;;;;-1.83;81.55;101192.34;1448909;89;21527;-88
2021/11/17 05:01:17;;;;;;;71.87;45.40;;;;;;;-1.76;81.44;101186.50;1445483;89;21331;-86
2021/11/17 05:03:58;;;;;;;76.60;46.73;;;;;;;-1.69;81.27;101184.57;1447536;90;21663;-88
2021/11/17 05:06:43;;;;;;;75.07;48.00;;;;;;;-1.63;81.33;101186.95;1437225;90;23571;-88
2021/11/17 05:09:36;;;;;;;112.42;59.98;;;;;;;-1.57;81.21;101181.55;1451946;90;22562;-88
2021/11/17 05:12:12;;;;;;;134.87;73.78;;;;;;;-1.54;82.10;101178.01;1428672;90;21501;-88
2021/11/17 05:15:17;;;;;;;144.17;78.45;;;;;;;-1.55;82.04;101177.59;1443726;90;21664;-88
2021/11/17 05:18:11;;;;;;;169.20;88.30;;;;;;;-1.52;82.53;101175.77;1448184;89;21493;-89
2021/11/17 05:20:59;;;;;;;146.75;82.50;;;;;;;-1.44;82.45;101179.37;1442340;90;21398;-88
2021/11/17 05:23:49;;;;;;;159.07;86.85;;;;;;;-1.43;81.96;101172.00;1445342;90;22565;-88
2021/11/17 05:26:40;;;;;;;159.55;91.25;;;;;;;-1.43;82.27;101178.49;1443413;90;21346;-90
2021/11/17 05:29:19;;;;;;;155.25;80.00;;;;;;;-1.47;82.58;101185.52;1448053;90;21448;-90
2021/11/17 05:32:10;;;;;;;154.45;88.35;;;;;;;-1.50;83.05;101186.92;1437969;90;21419;-90
2021/11/17 05:34:58;;;;;;;149.38;82.88;;;;;;;-1.51;84.16;101183.94;1446444;89;21383;-90
2021/11/17 05:37:59;;;;;;;130.03;74.00;;;;;;;-1.52;82.84;101190.05;1454178;90;22248;-89
2021/11/17 05:40:49;;;;;;;132.45;74.77;;;;;;;-1.49;83.01;101193.83;1442824;89;21684;-90
2021/11/17 05:43:31;;;;;;;120.22;69.60;;;;;;;-1.47;83.16;101196.36;1432228;91;23316;-89
2021/11/17 05:46:13;;;;;;;117.33;64.70;;;;;;;-1.48;83.56;101192.92;1416278;91;22387;-89
2021/11/17 05:49:01;;;;;;;118.50;68.45;;;;;;;-1.53;83.81;101193.52;1426774;92;21413;-90
2021/11/17 05:51:49;;;;;;;125.02;68.65;;;;;;;-1.61;83.37;101200.28;1414996;90;22358;-90
2021/11/17 05:54:30;;;;;;;116.93;64.05;;;;;;;-1.65;84.72;101190.89;1416767;92;21650;-90
2021/11/17 05:57:22;;;;;;;117.97;65.03;;;;;;;-1.62;84.59;101197.27;1422675;91;21443;-89
2021/11/17 06:00:15;;;;;;;130.30;73.40;;;;;;;-1.60;84.55;101194.19;1422924;91;21444;-89
2021/11/17 06:02:57;;;;;;;126.58;69.20;;;;;;;-1.51;84.57;101201.27;1419188;91;21441;-90
2021/11/17 06:05:26;;;;;;;133.27;70.80;;;;;;;-1.42;84.35;101197.90;1424702;90;21397;-89
2021/11/17 06:07:53;;;;;;;129.27;71.33;;;;;;;-1.38;84.54;101198.21;1425225;91;21405;-88
2021/11/17 06:10:24;;;;;;;133.63;75.52;;;;;;;-1.38;84.12;101200.81;1425506;91;21346;-89
2021/11/17 06:12:51;;;;;;;132.18;71.35;;;;;;;-1.41;84.13;101202.21;1432978;92;21413;-89
2021/11/17 06:15:20;;;;;;;140.75;76.57;;;;;;;-1.46;84.05;101196.32;1417354;92;21593;-90
2021/11/17 06:17:52;;;;;;;146.80;77.32;;;;;;;-1.47;84.54;101195.91;1420081;91;21368;-89
2021/11/17 06:20:21;;;;;;;155.00;79.03;;;;;;;-1.42;84.82;101195.30;1423515;92;21827;-90
2021/11/17 06:23:11;;;;;;;144.93;78.12;;;;;;;-1.33;85.12;101185.50;1427759;92;21525;-90
2021/11/17 06:25:41;;;;;;;124.53;70.42;;;;;;;-1.30;85.13;101189.29;1476434;88;21521;-88
2021/11/17 06:28:09;;;;;;;126.87;70.10;;;;;;;-1.32;85.01;101185.47;1470265;87;21455;-89
2021/11/17 06:30:40;;;;;;;113.62;64.95;;;;;;;-1.29;85.16;101193.15;1470551;88;21816;-88
2021/11/17 06:33:09;;;;;;;112.08;63.25;;;;;;;-1.30;85.11;101195.78;1470504;88;21522;-88
2021/11/17 06:35:39;;;;;;;113.37;65.57;;;;;;;-1.33;85.20;101195.44;1463673;88;22320;-88
2021/11/17 06:38:08;;;;;;;95.75;56.37;;;;;;;-1.31;85.04;101191.50;1465792;88;21463;-88
2021/11/17 06:40:40;;;;;;;111.47;61.20;;;;;;;-1.32;84.90;101196.28;1473482;88;21411;-88
2021/11/17 06:43:09;;;;;;;111.08;67.12;;;;;;;-1.30;84.75;101195.33;1470027;88;21404;-88
2021/11/17 06:45:44;;;;;;;127.30;70.28;;;;;;;-1.32;84.59;101193.68;1470404;88;21477;-88
2021/11/17 06:48:14;;;;;;;116.08;64.90;;;;;;;-1.26;84.84;101199.53;1472742;88;21367;-88
2021/11/17 06:50:45;;;;;;;111.50;62.30;;;;;;;-1.16;85.32;101196.99;1466733;88;21301;-89
2021/11/17 06:53:12;;;;;;;;;;;;;;;-1.07;85.25;101203.61;1471654;88;21478;-88
2021/11/17 06:55:39;;;;;;;104.23;56.30;;;;;;;-1.02;85.33;101212.10;1468066;88;20520;-88
2021/11/17 06:58:07;;;;;;;99.60;54.93;;;;;;;-0.93;85.00;101205.27;1465683;88;21419;-88
2021/11/17 07:00:40;;;;;;;89.70;54.25;;;;;;;-0.83;84.98;101207.56;1459147;88;21410;-88
2021/11/17 07:03:08;;;;;;;148.07;73.10;;;;;;;-0.78;84.60;101200.42;1468792;88;21508;-87
2021/11/17 07:05:35;;;;;;;274.48;119.08;;;;;;;-0.71;84.54;101209.70;1478629;88;21529;-86
2021/11/17 07:08:04;;;;;;;318.37;125.10;;;;;;;-0.65;84.17;101204.27;1470168;88;21511;-87
2021/11/17 07:10:34;;;;;;;253.30;105.27;;;;;;;-0.58;84.35;101205.72;1467718;88;22321;-87
2021/11/17 07:13:03;;;;;;;128.80;66.40;;;;;;;-0.50;84.62;101203.69;1466824;88;21441;-87
2021/11/17 07:15:32;;;;;;;115.17;61.15;;;;;;;-0.43;84.54;101202.15;1472395;88;21860;-86
2021/11/17 07:17:59;;;;;;;109.07;59.33;;;;;;;-0.38;84.49;101191.97;1468580;88;22291;-86
2021/11/17 07:20:28;;;;;;;114.92;60.12;;;;;;;-0.39;84.64;101199.39;1471091;88;21397;-87
2021/11/17 07:22:55;;;;;;;118.65;61.98;;;;;;;-0.38;84.40;101195.03;1464518;88;21389;-86
2021/11/17 07:25:24;;;;;;;105.07;54.03;;;;;;;-0.35;84.30;101197.51;1466716;88;21583;-87
2021/11/17 07:27:52;;;;;;;104.32;58.05;;;;;;;-0.36;84.94;101199.27;1475950;87;21285;-87
2021/11/17 07:30:25;;;;;;;112.12;58.70;;;;;;;-0.29;84.71;101198.56;1483765;88;21395;-87
2021/11/17 07:32:52;;;;;;;101.18;59.13;;;;;;;-0.20;84.83;101189.13;1476997;88;21403;-87
2021/11/17 07:35:23;;;;;;;100.30;56.98;;;;;;;-0.09;85.27;101191.28;1481467;88;21359;-86
2021/11/17 07:37:54;;;;;;;93.97;56.02;;;;;;;0.05;85.03;101198.55;1463082;88;21337;-88
2021/11/17 07:40:24;;;;;;;99.35;57.25;;;;;;;0.12;84.60;101197.41;1485191;88;21374;-87
2021/11/17 07:42:51;;;;;;;90.65;53.85;;;;;;;0.11;84.15;101197.84;1480713;88;21510;-88
2021/11/17 07:45:18;;;;;;;114.00;62.40;;;;;;;0.07;84.41;101195.44;1479264;88;21554;-87
2021/11/17 07:47:45;;;;;;;98.50;56.28;;;;;;;0.09;84.28;101196.23;1480449;88;21752;-87
2021/11/17 07:50:12;;;;;;;84.83;52.27;;;;;;;0.13;84.40;101196.48;1487730;88;21596;-87
2021/11/17 07:52:43;;;;;;;76.50;44.37;;;;;;;0.22;84.92;101198.71;1486246;88;21671;-88
2021/11/17 07:55:14;;;;;;;72.33;46.37;;;;;;;0.31;84.93;101200.94;1487274;88;21591;-86
2021/11/17 07:57:46;;;;;;;74.77;43.90;;;;;;;0.42;84.73;101196.13;1481232;88;21660;-85
2021/11/17 08:00:19;;;;;;;84.23;47.73;;;;;;;0.49;84.38;101199.78;1477695;88;21697;-85
2021/11/17 08:02:46;;;;;;;81.47;46.40;;;;;;;0.53;84.21;101198.75;1479540;87;21609;-85
2021/11/17 08:05:15;;;;;;;79.77;48.07;;;;;;;0.48;83.25;101199.40;1472313;88;21527;-86
2021/11/17 08:07:42;;;;;;;78.53;48.13;;;;;;;0.52;83.54;101202.25;1479681;88;21467;-87
2021/11/17 08:10:24;;;;;;;75.40;45.20;;;;;;;0.62;84.08;101208.78;1485658;88;21525;-86
2021/11/17 08:12:51;;;;;;;85.40;48.90;;;;;;;0.64;84.37;101201.76;1475121;87;21699;-85
2021/11/17 08:15:19;;;;;;;87.97;49.10;;;;;;;0.56;83.48;101205.14;1477842;88;21593;-86
2021/11/17 08:17:46;;;;;;;82.30;48.17;;;;;;;0.64;83.76;101216.09;1468279;88;21653;-86
2021/11/17 08:20:18;;;;;;;73.43;44.83;;;;;;;0.72;84.28;101215.31;1471526;88;21612;-87
2021/11/17 08:22:53;;;;;;;70.53;46.27;;;;;;;0.82;84.31;101220.50;1480467;88;22660;-87
2021/11/17 08:25:23;;;;;;;69.07;44.97;;;;;;;0.94;84.79;101213.06;1488178;87;21571;-86
2021/11/17 08:27:52;;;;;;;69.50;45.63;;;;;;;0.86;83.72;101213.39;1478469;87;21612;-86
2021/11/17 08:30:24;;;;;;;74.73;46.67;;;;;;;0.87;84.08;101208.12;1465945;88;21529;-86
2021/11/17 08:32:53;;;;;;;95.60;56.33;;;;;;;0.94;84.05;101205.25;1470654;88;21864;-87
2021/11/17 08:35:25;;;;;;;200.20;113.30;;;;;;;1.06;84.23;101204.70;1466430;88;21663;-87
2021/11/17 08:37:55;;;;;;;75.80;47.50;;;;;;;1.17;84.51;101203.77;1466183;89;21421;-87
2021/11/17 08:40:30;;;;;;;64.90;40.03;;;;;;;1.33;84.37;101200.88;1469455;88;22526;-88
2021/11/17 08:42:58;;;;;;;72.70;47.43;;;;;;;1.37;83.94;101200.27;1412824;92;21658;-86
2021/11/17 08:45:27;;;;;;;67.80;42.73;;;;;;;1.35;83.51;101200.36;1421441;91;21572;-85
2021/11/17 08:47:56;;;;;;;69.83;46.30;;;;;;;1.40;83.47;101199.29;1428035;91;21630;-85
2021/11/17 08:50:28;;;;;;;72.00;45.03;;;;;;;1.52;83.98;101206.55;1425642;91;21565;-84
2021/11/17 08:52:57;;;;;;;72.40;45.83;;;;;;;1.58;84.11;101206.25;1422310;91;22908;-84
2021/11/17 08:55:28;;;;;;;63.90;42.93;;;;;;;1.61;83.30;101206.58;1415066;91;21883;-85
2021/11/17 08:57:58;;;;;;;76.40;47.13;;;;;;;1.68;83.51;101208.84;1444689;91;22504;-85
2021/11/17 09:00:30;;;;;;;74.97;48.70;;;;;;;1.81;83.62;101216.92;1423932;90;21465;-86
2021/11/17 09:03:03;;;;;;;73.33;45.00;;;;;;;1.98;83.68;101216.13;1426682;90;22354;-84
2021/11/17 09:05:36;;;;;;;71.63;45.33;;;;;;;2.09;83.23;101219.08;1433921;91;21594;-83
2021/11/17 09:08:06;;;;;;;66.50;43.70;;;;;;;2.23;83.04;101222.33;1506028;90;21488;-87
2021/11/17 09:10:38;;;;;;;70.53;44.57;;;;;;;2.32;82.60;101217.12;1505930;90;21740;-88
2021/11/17 09:13:08;;;;;;;64.80;44.43;;;;;;;2.41;82.40;101214.89;1489177;91;21491;-84
2021/11/17 09:15:40;;;;;;;67.73;42.90;;;;;;;2.38;80.52;101210.28;1497339;92;21532;-84
2021/11/17 09:18:12;;;;;;;66.30;43.47;;;;;;;2.34;80.78;101210.06;1506699;91;21540;-83
2021/11/17 09:20:39;;;;;;;69.73;45.47;;;;;;;2.45;80.99;101211.69;1497533;91;21664;-84
2021/11/17 09:23:09;;;;;;;72.87;46.63;;;;;;;2.51;80.99;101207.45;1455945;91;21705;-84
2021/11/17 09:25:47;;;;;;;78.80;48.93;;;;;;;2.65;81.55;101210.22;1383732;91;21766;-83
2021/11/17 09:28:15;;;;;;;69.03;45.50;;;;;;;2.79;81.27;101208.66;1517278;91;21676;-83
2021/11/17 09:30:43;;;;;;;64.63;41.43;;;;;;;2.93;81.45;101214.89;1516696;91;21781;-83
2021/11/17 09:33:14;;;;;;;71.37;44.77;;;;;;;3.16;81.04;101199.30;1476378;90;22014;-83
2021/11/17 09:35:44;;;;;;;73.02;47.67;;;;;;;3.16;81.04;101199.30;1434523;90;21902;-83
2021/11/17 09:38:14;;;;;;;77.87;48.78;;;;;;;3.32;80.73;101201.09;1451241;90;21516;-83
2021/11/17 09:40:52;;;;;;;72.10;44.10;;;;;;;3.42;80.19;101187.03;1450979;90;21616;-83
2021/11/17 09:43:27;;;;;;;71.67;44.97;;;;;;;3.42;80.19;101187.03;1431859;90;22103;-83
2021/11/17 09:45:58;;;;;;;66.37;44.57;;;;;;;3.51;80.24;101193.95;1437229;91;22305;-83
2021/11/17 09:48:35;;;;;;;68.20;43.55;;;;;;;3.46;79.36;101190.73;1432601;90;22225;-83
2021/11/17 09:51:15;;;;;;;68.03;43.83;;;;;;;3.34;79.81;101191.40;1456759;89;21478;-83
2021/11/17 09:54:26;;;;;;;70.37;44.93;;;;;;;3.31;80.99;101177.14;1438224;91;21911;-83
2021/11/17 09:57:01;;;;;;;63.33;42.40;;;;;;;3.31;80.99;101177.14;1442763;91;24221;-84
2021/11/17 09:59:42;;;;;;;67.40;44.57;;;;;;;3.39;81.71;101174.52;1433733;91;21434;-85
2021/11/17 10:02:48;;;;;;;70.72;42.67;;;;;;;3.54;81.70;101172.84;1436085;91;24222;-84
2021/11/17 10:08:43;;;;;;;72.40;44.17;;;;;;;3.65;81.02;101170.91;1428308;91;22364;-84
2021/11/17 10:14:02;;;;;;;66.43;41.23;;;;;;;3.78;81.34;101163.23;1435678;91;23137;-84
2021/11/17 10:16:31;;;;;;;67.13;43.53;;;;;;;3.91;81.43;101160.76;1433458;91;22252;-84
2021/11/17 10:19:33;;;;;;;60.70;41.93;;;;;;;4.01;81.19;101163.25;1437254;91;22230;-83
2021/11/17 10:22:15;;;;;;;68.83;46.77;;;;;;;4.02;80.95;101156.59;1433262;91;22594;-84
2021/11/17 10:24:53;;;;;;;63.87;44.53;;;;;;;4.04;80.67;101146.88;1430703;89;22287;-85
2021/11/17 10:27:31;;;;;;;68.17;46.23;;;;;;;4.10;80.85;101148.78;1470063;88;22172;-84
2021/11/17 10:30:10;;;;;;;66.80;44.27;;;;;;;4.22;81.03;101151.98;1417864;91;22194;-85
2021/11/17 10:32:50;;;;;;;66.60;45.37;;;;;;;4.32;80.76;101153.62;1418803;92;22365;-84
2021/11/17 10:35:26;;;;;;;64.10;43.23;;;;;;;4.50;80.92;101141.58;1409508;92;22380;-85
2021/11/17 10:38:20;;;;;;;76.63;45.40;;;;;;;4.46;80.11;101142.70;1422806;92;22256;-85
2021/11/17 10:40:58;;;;;;;73.97;48.77;;;;;;;4.48;79.96;101145.22;1424082;91;21428;-85
2021/11/17 10:43:36;;;;;;;75.43;51.10;;;;;;;4.55;80.99;101150.97;1464710;88;21390;-87
2021/11/17 10:46:11;;;;;;;78.37;50.60;;;;;;;4.57;80.61;101141.20;1469500;88;21570;-83
2021/11/17 10:48:56;;;;;;;73.40;49.27;;;;;;;4.57;80.61;101141.20;1464443;88;21434;-83
2021/11/17 10:51:34;;;;;;;89.13;57.47;;;;;;;4.66;80.42;101138.03;1421069;92;22545;-83
2021/11/17 10:54:10;;;;;;;87.43;57.87;;;;;;;4.77;80.52;101142.16;1473108;88;22124;-83
2021/11/17 10:56:39;;;;;;;82.47;55.03;;;;;;;4.87;80.21;101142.47;1422052;92;21434;-83
2021/11/17 10:59:07;;;;;;;92.13;57.23;;;;;;;4.92;80.11;101134.69;1425792;92;21413;-86
2021/11/17 11:01:40;;;;;;;90.20;54.93;;;;;;;4.98;79.75;101136.94;1431104;91;21648;-86
2021/11/17 11:04:22;;;;;;;91.70;57.57;;;;;;;5.05;79.54;101137.87;1419094;92;21464;-86
2021/11/17 11:07:04;;;;;;;91.77;56.03;;;;;;;5.09;79.35;101140.22;1415303;91;21339;-86
2021/11/17 11:09:43;;;;;;;84.53;54.10;;;;;;;5.10;79.04;101136.64;1422465;92;21548;-87
2021/11/17 11:12:17;;;;;;;90.47;57.87;;;;;;;5.11;79.15;101134.86;1428201;92;21443;-86
2021/11/17 11:14:53;;;;;;;88.43;55.53;;;;;;;5.19;79.12;101142.63;1426710;91;21465;-87
2021/11/17 11:17:41;;;;;;;88.53;56.67;;;;;;;5.19;78.79;101141.31;1427056;92;21436;-85
2021/11/17 11:20:24;;;;;;;95.70;59.00;;;;;;;5.18;78.80;101133.55;1407292;92;21442;-86
2021/11/17 11:23:12;;;;;;;94.73;59.30;;;;;;;5.18;79.00;101130.93;1472104;88;21353;-86
2021/11/17 11:26:00;;;;;;;97.23;63.20;;;;;;;5.19;78.85;101137.86;1464681;88;21561;-86
2021/11/17 11:29:03;;;;;;;96.43;61.90;;;;;;;5.15;79.11;101132.41;1465074;88;21427;-87
2021/11/17 11:31:47;;;;;;;83.57;52.23;;;;;;;5.10;79.33;101132.70;1473574;89;21361;-87
2021/11/17 11:34:35;;;;;;;86.43;54.13;;;;;;;5.08;79.31;101131.11;1481255;89;21324;-85
2021/11/17 11:37:05;;;;;;;87.73;54.77;;;;;;;5.05;79.11;101120.34;1462519;89;22573;-86
2021/11/17 11:39:41;;;;;;;96.22;59.60;;;;;;;5.04;79.76;101126.53;1472987;88;21480;-86
2021/11/17 11:42:14;;;;;;;93.53;58.67;;;;;;;5.04;79.77;101121.77;1423320;92;21325;-86
2021/11/17 11:44:49;;;;;;;90.93;54.97;;;;;;;5.03;80.03;101120.05;1417446;92;21606;-86
2021/11/17 11:47:25;;;;;;;96.83;57.70;;;;;;;5.07;80.24;101115.01;1418056;92;21576;-86
2021/11/17 11:49:57;;;;;;;96.00;59.57;;;;;;;5.08;80.25;101107.50;1412476;92;22308;-87
2021/11/17 11:52:39;;;;;;;106.30;62.00;;;;;;;5.18;80.25;101104.69;1414928;91;21570;-87
2021/11/17 11:55:14;;;;;;;95.70;59.00;;;;;;;5.31;80.47;101102.95;1403726;92;22514;-86
2021/11/17 11:57:51;;;;;;;84.77;54.03;;;;;;;5.39;80.11;101107.25;1419421;92;21436;-87
2021/11/17 12:00:32;;;;;;;90.23;58.27;;;;;;;5.47;80.25;101106.78;1412465;92;21509;-87
2021/11/17 12:03:09;;;;;;;;;;;;;;;5.60;80.08;101102.88;1417828;92;21480;-86
2021/11/17 12:05:45;;;;;;;91.67;55.50;;;;;;;5.64;79.54;101097.82;1424199;92;20407;-86
2021/11/17 12:08:24;;;;;;;87.87;54.17;;;;;;;5.68;79.79;101097.98;1419759;92;21362;-86
2021/11/17 12:11:12;;;;;;;88.57;53.73;;;;;;;5.68;79.49;101094.03;1465664;89;21508;-87
2021/11/17 12:13:44;;;;;;;84.53;54.03;;;;;;;5.69;79.76;101094.87;1459666;89;21589;-86
2021/11/17 12:16:22;;;;;;;92.17;55.93;;;;;;;5.60;79.61;101097.15;1461596;89;21397;-87
2021/11/17 12:19:11;;;;;;;87.77;53.50;;;;;;;5.64;79.73;101099.13;1415598;92;22247;-88
2021/11/17 12:22:05;;;;;;;87.50;56.93;;;;;;;5.69;80.09;101097.02;1419885;92;22967;-87
2021/11/17 12:24:38;;;;;;;92.23;56.83;;;;;;;5.78;80.14;101099.08;1413428;92;22310;-87
2021/11/17 12:27:22;;;;;;;83.73;53.47;;;;;;;5.96;80.24;101109.34;1415410;91;21598;-87
2021/11/17 12:30:08;;;;;;;77.83;53.30;;;;;;;5.98;79.68;101106.96;1422647;92;21621;-86
2021/11/17 12:32:56;;;;;;;82.50;50.70;;;;;;;5.89;79.60;101101.81;1413452;91;21384;-87
2021/11/17 12:35:37;;;;;;;75.37;50.37;;;;;;;5.88;79.70;101104.08;1468376;89;21346;-88
2021/11/17 12:38:11;;;;;;;90.00;53.30;;;;;;;5.79;79.46;101096.80;1469403;89;21589;-87
2021/11/17 12:40:49;;;;;;;77.90;51.37;;;;;;;5.72;79.81;101091.57;1466148;88;21470;-83
2021/11/17 12:43:41;;;;;;;80.90;54.10;;;;;;;5.66;80.13;101089.34;1462284;89;21390;-83
2021/11/17 12:46:44;;;;;;;84.60;54.30;;;;;;;5.63;80.01;101082.98;1467891;89;21538;-83
2021/11/17 12:49:31;;;;;;;109.53;65.77;;;;;;;5.56;80.76;101080.40;1463902;89;21458;-83
2021/11/17 12:52:07;;;;;;;93.87;56.47;;;;;;;5.37;81.14;101075.00;1463861;89;21442;-83
2021/11/17 12:55:01;;;;;;;102.73;62.17;;;;;;;5.23;82.39;101068.47;1458712;89;21597;-83
2021/11/17 12:57:36;;;;;;;110.63;68.47;;;;;;;5.20;82.34;101061.64;1462763;89;21608;-82
2021/11/17 13:00:25;;;;;;;102.03;61.20;;;;;;;5.29;82.46;101070.70;1459702;88;21574;-83
2021/11/17 13:02:57;;;;;;;99.83;58.80;;;;;;;5.39;82.51;101066.56;1458469;89;22418;-83
2021/11/17 13:05:31;;;;;;;96.90;59.30;;;;;;;5.35;82.20;101074.28;1466063;89;22352;-85
2021/11/17 13:08:09;;;;;;;104.40;65.97;;;;;;;5.31;82.56;101083.27;1467205;89;21575;-84
2021/11/17 13:10:49;;;;;;;94.20;60.87;;;;;;;5.35;82.34;101078.66;1469107;89;21301;-84
2021/11/17 13:13:25;;;;;;;96.47;60.17;;;;;;;5.38;82.18;101077.15;1464187;89;22336;-85
2021/11/17 13:16:00;;;;;;;102.40;63.57;;;;;;;5.39;82.52;101073.61;1456343;88;21516;-84
2021/11/17 13:18:48;;;;;;;85.57;55.20;;;;;;;5.41;82.45;101071.25;1460167;89;21546;-84
2021/11/17 13:21:32;;;;;;;91.67;57.47;;;;;;;5.42;82.43;101068.16;1414026;92;21621;-84
2021/11/17 13:24:11;;;;;;;95.73;57.20;;;;;;;5.36;82.07;101072.02;1417924;92;21502;-84
2021/11/17 13:27:11;;;;;;;85.33;56.87;;;;;;;5.22;82.39;101074.67;1459240;88;21493;-84
2021/11/17 13:30:14;;;;;;;108.37;67.90;;;;;;;5.12;82.63;101076.18;1479673;88;21315;-83
2021/11/17 13:32:46;;;;;;;113.47;68.17;;;;;;;5.11;82.90;101069.26;1466058;88;22454;-83
2021/11/17 13:35:31;;;;;;;108.33;62.63;;;;;;;5.11;83.08;101069.26;1468343;88;21375;-82
2021/11/17 13:38:22;;;;;;;105.77;61.90;;;;;;;5.15;83.05;101065.48;1474496;88;21360;-84
2021/11/17 13:40:54;;;;;;;100.92;58.73;;;;;;;5.15;83.47;101063.73;1459679;88;21728;-82
2021/11/17 13:43:23;;;;;;;103.23;61.97;;;;;;;5.14;83.16;101056.78;1475468;88;21575;-85
2021/11/17 13:45:53;;;;;;;95.50;59.50;;;;;;;5.12;83.76;101053.87;1478033;88;21411;-84
2021/11/17 13:48:29;;;;;;;98.07;61.50;;;;;;;5.12;83.76;101053.87;1436544;91;22454;-85
2021/11/17 13:50:57;;;;;;;93.90;57.70;;;;;;;5.10;83.86;101052.68;1482909;88;22327;-85
2021/11/17 13:53:33;;;;;;;88.87;57.20;;;;;;;5.12;83.49;101053.87;1482428;88;21521;-85
2021/11/17 13:56:11;;;;;;;84.20;53.97;;;;;;;4.96;84.01;101061.41;1479556;88;21504;-85
2021/11/17 13:58:39;;;;;;;86.57;53.77;;;;;;;4.75;84.16;101057.52;1479908;88;23279;-84
2021/11/17 14:01:08;;;;;;;94.47;57.33;;;;;;;4.75;84.16;101057.52;1480859;88;21535;-86
2021/11/17 14:03:36;;;;;;;101.73;60.70;;;;;;;4.68;84.55;101056.19;1452537;91;22277;-84
2021/11/17 14:06:10;;;;;;;96.50;60.67;;;;;;;4.61;85.41;101056.21;1453184;87;22028;-84
2021/11/17 14:08:37;;;;;;;96.50;61.53;;;;;;;4.55;85.58;101050.87;1514350;87;22544;-84
2021/11/17 14:11:06;;;;;;;108.83;68.47;;;;;;;4.55;85.50;101043.01;1476077;88;22057;-84
2021/11/17 14:13:34;;;;;;;117.00;66.80;;;;;;;4.57;85.59;101046.35;1483945;88;22053;-83
2021/11/17 14:16:02;;;;;;;115.87;69.33;;;;;;;4.60;85.73;101050.09;1565216;88;21177;-83
2021/11/17 14:18:31;;;;;;;119.80;74.37;;;;;;;4.64;85.57;101046.84;1467890;88;22132;-83
2021/11/17 14:21:02;;;;;;;110.47;66.33;;;;;;;4.65;85.26;101049.83;1477136;88;22147;-83
2021/11/17 14:23:29;;;;;;;121.75;78.33;;;;;;;4.57;85.27;101036.34;1416882;88;22242;-83
2021/11/17 14:25:57;;;;;;;114.77;72.13;;;;;;;4.53;85.21;101037.84;1417701;88;21251;-84
2021/11/17 14:28:36;;;;;;;97.83;60.20;;;;;;;4.51;85.31;101041.48;1486058;87;22310;-84
2021/11/17 14:31:11;;;;;;;97.80;59.00;;;;;;;4.48;84.78;101037.27;1483662;87;22373;-84
2021/11/17 14:33:44;;;;;;;93.50;58.07;;;;;;;4.51;84.76;101042.80;1475761;88;23163;-84
2021/11/17 14:36:11;;;;;;;90.17;56.60;;;;;;;4.41;84.36;101033.36;1477697;87;23051;-84
2021/11/17 14:38:43;;;;;;;92.67;57.10;;;;;;;4.36;84.25;101038.50;1474665;88;22252;-85